METAR Data
IDs: Format: Raw Decoded Include TAF

Data at: 0023 UTC 30 May 2020

METAR for:KRDK (Red Oak Muni, IA, US)
Text:KRDK 300015Z AUTO 36007G13KT 10SM CLR 23/07 A3014 RMK AO2
Temperature: 23.0°C ( 73°F)
Dewpoint: 7.0°C ( 45°F) [RH = 36%]
Pressure (altimeter):30.14 inches Hg (1020.7 mb)
Winds:from the N (360 degrees) at 8 MPH (7 knots; 3.6 m/s) gusting to 15 MPH (13 knots; 6.7 m/s)
Visibility:10 or more sm (16+ km)
Ceiling:at least 12,000 feet AGL
Clouds:sky clear below 12,000 feet AGL
QC Flag:automated observation with no human augmentation